首页
METAR-TAF:

METAR-TAF

机场 :

凯奇凯梅特, 匈牙利

纬度: 46-55N, 经度: 019-45E, 海拔: 113米

当前天气观测

该预报发布于26分钟前的08:15 UTC
风速2节,风向多变
温度 10°C
湿度 40%
气压 1014 hPa
能见度10公里或以上
1500米以下无云,无积雨云

METAR: LHKE 030815Z VRB02KT CAVOK 10/M03 Q1014 R12/01//95 NOSIG RMK BLU

时间: 10:41 (08:41 UTC)

预报

该预报发布于3小时和26分钟前的05:15 UTC
预报有效从03日的 06点(UTC)到 03日的 15点(UTC)
风速2节,风向多变
能见度10公里或以上
1500米以下无云,无积雨云
成为
从 03日的 07点(UTC)到 03日的 10点(UTC)
风速6节,风向西南
成为
从 03日的 10点(UTC)到 03日的 13点(UTC)
风速8节,风向西

TAF: LHKE 030515Z 0306/0315 VRB02KT CAVOK BECMG 0307/0310 22006KT BECMG 0310/0313 28008KT

超过4000个机场的气象观测和天气预报(METAR&TAF报告)。

可查询的气象台以黄色和红色小点在地图上表示。

将鼠标移到小点上方,可查看气象台名称。

然后点击查看天气观测和预报。

如需切换地图:点击带黑十字的绿色按钮放大地图;点击带横线的绿色按钮缩小地图;或者点击绿色箭头查看邻近地区的地图。


METAR-TAF: